createdAt,value
2022-08-24T05:31:32.279Z,18.70
2022-08-24T05:34:34.148Z,18.90
2022-08-24T05:37:37.827Z,19.40
2022-08-24T05:40:39.517Z,20.40
2022-08-24T05:43:41.585Z,22.20
2022-08-24T05:46:44.090Z,22.50
2022-08-24T05:49:46.096Z,23.10
2022-08-24T05:52:47.845Z,24.20
2022-08-24T05:55:50.335Z,25.50
2022-08-24T05:58:52.730Z,26.60
2022-08-24T06:01:54.502Z,27.40
2022-08-24T06:04:56.268Z,27.80
2022-08-24T06:07:58.280Z,28.10
2022-08-24T06:11:01.842Z,28.80
2022-08-24T06:50:12.698Z,25.00
2022-08-24T06:53:15.243Z,25.50
2022-08-24T06:56:18.102Z,26.60
2022-08-24T06:59:20.759Z,27.00
2022-08-24T07:02:22.826Z,26.80
2022-08-24T07:05:24.537Z,26.40
2022-08-24T07:08:26.500Z,26.40
2022-08-24T07:11:28.283Z,27.60
2022-08-24T07:14:30.187Z,28.50
2022-08-24T07:17:31.890Z,29.90
2022-08-24T07:20:33.916Z,30.80
2022-08-24T07:23:41.928Z,31.80
2022-08-24T07:26:44.406Z,32.40
2022-08-24T07:29:50.711Z,31.90
2022-08-24T07:33:01.757Z,31.40
2022-08-24T07:36:03.915Z,31.70
2022-08-24T07:39:08.093Z,31.60
2022-08-24T07:42:13.838Z,31.50
2022-08-24T07:45:16.832Z,31.80
2022-08-24T07:48:18.875Z,31.90
2022-08-24T07:51:20.749Z,32.10
2022-08-24T07:54:22.587Z,32.40
2022-08-24T07:57:24.971Z,31.40
2022-08-24T08:00:27.038Z,31.20
2022-08-24T08:03:29.957Z,31.70
2022-08-24T08:06:31.878Z,32.30
2022-08-24T08:09:36.763Z,33.30
2022-08-24T08:12:39.108Z,33.80
2022-08-24T08:15:41.454Z,34.70
2022-08-24T08:18:45.509Z,35.30
2022-08-24T08:22:11.127Z,35.50
2022-08-24T08:25:13.025Z,35.60
2022-08-24T08:28:25.663Z,36.00
2022-08-24T08:31:28.242Z,35.70
2022-08-24T08:34:31.508Z,35.50
2022-08-24T08:37:33.587Z,35.60
2022-08-24T08:40:55.550Z,35.80
2022-08-24T08:44:05.165Z,35.10
2022-08-24T08:47:46.926Z,34.20
2022-08-24T08:51:28.469Z,33.90
2022-08-24T08:55:01.105Z,35.10
2022-08-24T08:58:29.660Z,34.90
2022-08-24T09:02:01.682Z,35.00
2022-08-24T09:05:37.529Z,34.70
2022-08-24T09:08:52.037Z,34.80
2022-08-24T09:12:25.261Z,35.00
2022-08-24T09:16:10.447Z,34.10
2022-08-24T09:19:44.748Z,33.40
2022-08-24T09:22:48.289Z,32.70
2022-08-24T09:26:19.064Z,32.70
2022-08-24T09:29:49.514Z,33.70
2022-08-24T09:33:14.206Z,33.80
2022-08-24T09:36:31.170Z,34.50
2022-08-24T09:40:08.797Z,34.90
2022-08-24T09:43:45.818Z,35.40
2022-08-24T09:47:25.264Z,34.60
2022-08-24T09:51:00.167Z,33.80
2022-08-24T09:54:26.036Z,34.00
2022-08-24T09:58:01.499Z,34.20
2022-08-24T10:01:22.266Z,35.20
2022-08-24T10:04:50.765Z,34.90
2022-08-24T10:08:18.577Z,35.00
2022-08-24T10:11:58.072Z,35.90
2022-08-24T10:15:09.232Z,36.10
2022-08-24T10:18:41.495Z,35.80
2022-08-24T10:22:02.086Z,36.00
2022-08-24T10:25:37.396Z,35.90
2022-08-24T10:29:01.059Z,34.30
2022-08-24T10:32:42.799Z,34.00
2022-08-24T10:36:15.178Z,35.00
2022-08-24T10:40:01.834Z,35.90
2022-08-24T10:43:34.635Z,35.00
2022-08-24T10:46:48.580Z,34.20
2022-08-24T10:50:31.039Z,34.80
2022-08-24T10:53:34.504Z,34.00
2022-08-24T10:57:01.135Z,33.30
2022-08-24T11:00:22.576Z,33.20
2022-08-24T11:03:27.960Z,32.60
2022-08-24T11:06:40.459Z,33.40
2022-08-24T11:10:00.229Z,33.60
2022-08-24T11:13:23.801Z,33.40
2022-08-24T11:16:30.497Z,32.90
2022-08-24T11:19:35.099Z,32.60
2022-08-24T11:22:41.556Z,32.80
2022-08-24T11:25:56.264Z,33.00
2022-08-24T11:29:00.277Z,33.50
2022-08-24T11:32:01.982Z,33.10
2022-08-24T11:35:28.074Z,32.70
2022-08-24T11:38:34.880Z,33.50
2022-08-24T11:41:47.280Z,32.60
2022-08-24T11:44:59.061Z,32.90
2022-08-24T11:48:37.424Z,32.20
2022-08-24T11:52:05.017Z,32.70
2022-08-24T11:55:17.924Z,32.20
2022-08-24T11:58:49.059Z,31.40
2022-08-24T12:01:56.545Z,30.80
2022-08-24T12:05:09.604Z,30.50
2022-08-24T12:08:47.961Z,30.40
2022-08-24T12:12:18.908Z,30.50
2022-08-24T12:15:37.111Z,30.40
2022-08-24T12:19:02.673Z,30.20
2022-08-24T12:22:07.528Z,30.00
2022-08-24T12:25:32.012Z,29.50
2022-08-24T12:28:41.265Z,29.60
2022-08-24T12:31:49.260Z,30.10
2022-08-24T12:34:58.343Z,30.20
2022-08-24T12:38:12.053Z,30.00
2022-08-24T12:41:29.352Z,29.60
2022-08-24T12:44:42.517Z,29.70
2022-08-24T12:48:09.535Z,29.90
2022-08-24T12:51:51.845Z,30.20
2022-08-24T12:55:10.227Z,29.90
2022-08-24T12:58:54.374Z,29.80
2022-08-24T13:02:02.855Z,29.90
2022-08-24T13:05:15.303Z,29.90
2022-08-24T13:08:33.849Z,29.80
2022-08-24T13:11:36.002Z,29.90
2022-08-24T13:14:37.813Z,30.10
2022-08-24T13:17:42.137Z,30.10
2022-08-24T13:20:44.350Z,30.10
2022-08-24T13:23:46.201Z,30.30
2022-08-24T13:26:47.991Z,30.30
2022-08-24T13:29:54.675Z,30.00
2022-08-24T13:33:03.112Z,30.00
2022-08-24T13:36:32.520Z,29.90
2022-08-24T13:39:44.743Z,29.60
2022-08-24T13:43:10.136Z,29.50
2022-08-24T13:46:44.332Z,29.60
2022-08-24T13:50:01.986Z,29.50
2022-08-24T13:53:44.201Z,29.50
2022-08-24T13:57:22.194Z,29.70
2022-08-24T14:00:45.376Z,29.70
2022-08-24T14:04:18.253Z,29.70
2022-08-24T14:07:27.014Z,29.70
2022-08-24T14:10:53.806Z,30.00
2022-08-24T14:14:16.803Z,29.80
2022-08-24T14:17:58.361Z,29.80
2022-08-24T14:21:20.601Z,29.80
2022-08-24T14:24:27.172Z,30.10
2022-08-24T14:27:40.255Z,30.00
2022-08-24T14:30:44.706Z,29.90
2022-08-24T14:34:17.481Z,29.80
2022-08-24T14:37:26.277Z,29.50
2022-08-24T14:40:42.897Z,29.50
2022-08-24T14:44:25.156Z,29.40
2022-08-24T14:47:41.274Z,29.60
2022-08-24T14:50:58.596Z,29.70
2022-08-24T14:54:27.207Z,29.70
2022-08-24T14:57:48.397Z,29.60
2022-08-24T15:01:26.539Z,29.50
2022-08-24T15:04:39.150Z,29.40
2022-08-24T15:07:51.551Z,29.40
2022-08-24T15:11:00.383Z,29.50
2022-08-24T15:14:07.326Z,29.40
2022-08-24T15:17:13.961Z,29.20
2022-08-24T15:20:20.444Z,29.30
2022-08-24T15:24:02.028Z,29.50
2022-08-24T15:27:43.261Z,29.50
2022-08-24T15:30:57.725Z,29.40
2022-08-24T15:34:03.304Z,29.20
2022-08-24T15:37:06.427Z,29.20
2022-08-24T15:40:29.974Z,29.20
2022-08-24T15:43:34.322Z,29.30
2022-08-24T15:46:40.818Z,29.40
2022-08-24T15:49:50.620Z,29.20
2022-08-24T15:53:21.289Z,29.30
2022-08-24T15:56:35.296Z,29.40
2022-08-24T15:59:41.174Z,29.20
